createdAt,value
2022-12-13T00:01:20.677Z,11.87
2022-12-13T00:03:48.583Z,12.03
2022-12-13T00:06:16.154Z,13.87
2022-12-13T00:08:43.677Z,13.63
2022-12-13T00:11:13.817Z,13.57
2022-12-13T00:13:43.683Z,13.87
2022-12-13T00:16:13.468Z,13.37
2022-12-13T00:18:41.285Z,13.43
2022-12-13T00:21:09.941Z,12.60
2022-12-13T00:23:37.468Z,9.53
2022-12-13T00:26:05.303Z,12.23
2022-12-13T00:28:33.355Z,17.47
2022-12-13T00:31:26.056Z,15.63
2022-12-13T00:33:50.486Z,14.53
2022-12-13T00:36:18.432Z,16.23
2022-12-13T00:38:46.013Z,18.23
2022-12-13T00:41:15.204Z,14.70
2022-12-13T00:43:43.057Z,15.90
2022-12-13T00:46:15.708Z,16.53
2022-12-13T00:48:43.652Z,11.30
2022-12-13T00:51:12.532Z,12.57
2022-12-13T00:53:40.219Z,10.57
2022-12-13T00:56:12.246Z,10.20
2022-12-13T00:58:39.993Z,10.20
2022-12-13T01:01:09.330Z,12.77
2022-12-13T01:03:39.225Z,14.57
2022-12-13T01:06:15.299Z,13.50
2022-12-13T01:08:44.130Z,13.30
2022-12-13T01:11:12.332Z,10.43
2022-12-13T01:13:40.319Z,10.47
2022-12-13T01:16:10.625Z,8.53
2022-12-13T01:18:42.383Z,9.70
2022-12-13T01:21:14.775Z,11.43
2022-12-13T01:23:42.789Z,12.97
2022-12-13T01:26:12.324Z,13.27
2022-12-13T01:28:40.010Z,9.60
2022-12-13T01:31:09.082Z,9.33
2022-12-13T01:33:36.926Z,8.40
2022-12-13T01:36:08.541Z,8.20
2022-12-13T01:38:37.817Z,7.57
2022-12-13T01:41:17.850Z,12.00
2022-12-13T01:43:55.875Z,8.63
2022-12-13T01:46:23.589Z,8.77
2022-12-13T01:48:56.334Z,9.47
2022-12-13T01:51:29.030Z,17.00
2022-12-13T01:54:00.763Z,12.23
2022-12-13T01:56:32.834Z,11.73
2022-12-13T01:59:02.978Z,10.90
2022-12-13T02:01:30.778Z,14.30
2022-12-13T02:03:58.279Z,13.97
2022-12-13T02:06:33.745Z,13.20
2022-12-13T02:09:02.430Z,12.43
2022-12-13T02:11:30.265Z,9.70
2022-12-13T02:13:57.782Z,7.93
2022-12-13T02:16:39.423Z,8.00
2022-12-13T02:19:39.458Z,6.60
2022-12-13T02:22:23.652Z,8.00
2022-12-13T02:25:10.894Z,7.00
2022-12-13T02:28:00.711Z,6.57
2022-12-13T02:30:39.001Z,6.43
2022-12-13T02:33:26.479Z,7.30
2022-12-13T02:36:05.738Z,7.80
2022-12-13T02:38:40.258Z,10.07
2022-12-13T02:41:16.754Z,9.60
2022-12-13T02:43:49.601Z,7.73
2022-12-13T02:46:24.314Z,9.27
2022-12-13T02:48:55.819Z,8.33
2022-12-13T02:51:24.800Z,7.90
2022-12-13T02:53:52.304Z,8.97
2022-12-13T02:56:20.472Z,10.67
2022-12-13T02:58:50.670Z,12.60
2022-12-13T03:01:40.022Z,11.60
2022-12-13T03:04:14.109Z,13.73
2022-12-13T03:06:51.355Z,14.90
2022-12-13T03:09:29.901Z,10.13
2022-12-13T03:12:29.050Z,11.73
2022-12-13T03:15:04.369Z,12.80
2022-12-13T03:17:40.508Z,14.50
2022-12-13T03:20:22.522Z,17.90
2022-12-13T03:22:50.555Z,18.80
2022-12-13T03:25:31.614Z,17.00
2022-12-13T03:28:01.459Z,12.53
2022-12-13T03:30:31.476Z,15.93
2022-12-13T03:33:00.693Z,13.70
2022-12-13T03:35:34.681Z,16.10
2022-12-13T03:38:22.794Z,14.67
2022-12-13T03:40:52.950Z,15.30
2022-12-13T03:43:22.458Z,15.40
2022-12-13T03:45:50.748Z,16.07
2022-12-13T03:48:22.453Z,14.73
2022-12-13T03:50:50.808Z,16.43
2022-12-13T03:53:22.296Z,12.10
2022-12-13T03:56:00.995Z,13.60
2022-12-13T03:58:36.019Z,14.00
2022-12-13T04:01:06.470Z,15.17
2022-12-13T04:03:35.523Z,15.33
2022-12-13T04:06:03.070Z,15.20
2022-12-13T04:08:30.683Z,15.17
2022-12-13T04:10:58.284Z,14.83
2022-12-13T04:13:34.067Z,15.20
2022-12-13T04:16:01.797Z,15.60
2022-12-13T04:18:29.383Z,14.20
2022-12-13T04:20:58.331Z,15.20
2022-12-13T04:23:25.979Z,15.63
2022-12-13T04:25:53.690Z,16.17
2022-12-13T04:28:22.151Z,16.80
2022-12-13T04:30:52.964Z,17.13
2022-12-13T04:33:21.913Z,17.53
2022-12-13T04:35:49.690Z,16.77
2022-12-13T04:38:19.331Z,17.03
2022-12-13T04:40:47.029Z,19.70
2022-12-13T04:43:14.557Z,16.80
2022-12-13T04:45:42.193Z,16.33
2022-12-13T04:48:09.780Z,17.80
2022-12-13T04:50:37.339Z,16.70
2022-12-13T04:53:04.868Z,16.80
2022-12-13T04:55:33.759Z,18.00
2022-12-13T04:58:01.279Z,17.63
2022-12-13T05:00:28.838Z,17.97
2022-12-13T05:02:56.406Z,18.10
2022-12-13T05:05:23.985Z,16.13
2022-12-13T05:07:51.585Z,17.50
2022-12-13T05:10:34.160Z,18.77
2022-12-13T05:13:07.547Z,15.63
2022-12-13T05:15:35.431Z,17.30
2022-12-13T05:18:09.762Z,19.03
2022-12-13T05:20:38.962Z,17.17
2022-12-13T05:23:06.566Z,19.10
2022-12-13T05:25:35.131Z,22.93
2022-12-13T05:28:08.966Z,16.50
2022-12-13T05:30:51.480Z,20.20
2022-12-13T05:33:19.037Z,21.57
2022-12-13T05:35:47.203Z,19.80
2022-12-13T05:38:14.758Z,21.73
2022-12-13T05:40:42.413Z,18.80
2022-12-13T05:43:21.206Z,21.47
2022-12-13T05:45:51.284Z,20.87
2022-12-13T05:48:24.152Z,22.70
2022-12-13T05:50:52.584Z,22.17
2022-12-13T05:53:39.544Z,23.70
2022-12-13T05:56:07.815Z,21.37
2022-12-13T05:58:36.305Z,22.83
2022-12-13T06:01:10.853Z,23.90
2022-12-13T06:03:38.784Z,23.33
2022-12-13T06:06:08.518Z,23.90
2022-12-13T06:08:36.610Z,20.13
2022-12-13T06:11:11.533Z,23.93
2022-12-13T06:13:42.867Z,21.80
2022-12-13T06:16:22.887Z,25.43
2022-12-13T06:18:56.175Z,21.97
2022-12-13T06:21:33.373Z,23.00
2022-12-13T06:24:13.930Z,22.77
2022-12-13T06:26:41.470Z,24.87
2022-12-13T06:29:10.333Z,21.80
2022-12-13T06:31:39.196Z,25.47
2022-12-13T06:34:14.182Z,24.40
2022-12-13T06:36:43.129Z,20.63
2022-12-13T06:39:10.736Z,22.37
2022-12-13T06:41:38.297Z,22.20
2022-12-13T06:44:06.364Z,20.73
2022-12-13T06:46:34.050Z,20.23
2022-12-13T06:49:02.957Z,20.20
2022-12-13T06:51:33.074Z,21.17
2022-12-13T06:54:02.380Z,20.97
2022-12-13T06:56:30.645Z,21.80
2022-12-13T06:59:01.730Z,21.97
2022-12-13T07:01:37.355Z,21.47
2022-12-13T07:04:30.306Z,22.50
2022-12-13T07:06:56.466Z,20.00
2022-12-13T07:09:29.809Z,20.70
2022-12-13T07:11:57.401Z,21.50
2022-12-13T07:14:24.944Z,22.13
2022-12-13T07:16:55.481Z,16.30
2022-12-13T07:19:28.405Z,17.40
2022-12-13T07:22:05.496Z,16.23
2022-12-13T07:24:33.164Z,15.10
2022-12-13T07:27:00.685Z,15.17
2022-12-13T07:29:28.207Z,16.17
2022-12-13T07:32:01.172Z,15.57
2022-12-13T07:34:30.952Z,20.50
2022-12-13T07:36:58.612Z,19.53
2022-12-13T07:39:26.982Z,19.93
2022-12-13T07:41:55.702Z,20.17
2022-12-13T07:44:23.248Z,19.83
2022-12-13T07:46:50.783Z,17.47
2022-12-13T07:49:18.374Z,18.27
2022-12-13T07:51:47.388Z,17.07
2022-12-13T07:54:14.895Z,16.43
2022-12-13T07:56:42.443Z,17.23
2022-12-13T07:59:10.145Z,17.90
2022-12-13T08:01:37.814Z,16.70
2022-12-13T08:04:05.789Z,16.30
2022-12-13T08:06:36.058Z,15.97
2022-12-13T08:09:05.995Z,17.07
2022-12-13T08:11:33.761Z,18.30
2022-12-13T08:14:01.380Z,16.73
2022-12-13T08:16:29.931Z,16.10
2022-12-13T08:19:02.103Z,16.27
2022-12-13T08:24:23.196Z,14.67
2022-12-13T08:26:50.707Z,15.33
2022-12-13T08:29:22.840Z,14.67
2022-12-13T08:32:01.719Z,12.80
2022-12-13T08:34:29.495Z,23.77
2022-12-13T08:37:01.725Z,14.23
2022-12-13T08:39:34.088Z,28.87
2022-12-13T08:42:15.155Z,23.50
2022-12-13T08:44:45.298Z,16.47
2022-12-13T08:47:13.399Z,13.87
2022-12-13T08:49:53.163Z,11.73
2022-12-13T08:52:22.283Z,12.20
2022-12-13T08:54:51.400Z,12.07
2022-12-13T08:57:18.975Z,11.80
2022-12-13T08:59:46.491Z,12.50
2022-12-13T09:02:15.160Z,16.07
2022-12-13T09:04:42.941Z,17.70
2022-12-13T09:07:10.460Z,12.20
2022-12-13T09:09:38.162Z,12.87
2022-12-13T09:12:10.247Z,58.63
2022-12-13T09:14:45.605Z,74.67
2022-12-13T09:17:14.766Z,44.53
2022-12-13T09:19:58.047Z,49.63
2022-12-13T09:22:32.815Z,67.13
2022-12-13T09:25:02.781Z,54.97
2022-12-13T09:27:39.605Z,33.17
2022-12-13T09:30:12.078Z,38.60
2022-12-13T09:32:39.660Z,38.53
2022-12-13T09:35:07.769Z,32.07
2022-12-13T09:37:36.971Z,13.90
2022-12-13T09:40:16.268Z,25.60
2022-12-13T09:43:12.487Z,22.93
2022-12-13T09:45:47.947Z,28.50
2022-12-13T09:48:22.915Z,28.30
2022-12-13T09:51:15.884Z,28.53
2022-12-13T09:53:41.167Z,34.43
2022-12-13T09:56:13.324Z,29.93
2022-12-13T09:58:42.223Z,32.00
2022-12-13T10:01:12.960Z,25.37
2022-12-13T10:03:42.401Z,27.30
2022-12-13T10:06:22.721Z,24.50
2022-12-13T10:08:58.345Z,20.10
2022-12-13T10:11:32.144Z,11.63
2022-12-13T10:14:05.416Z,18.13
2022-12-13T10:16:44.629Z,18.97
2022-12-13T10:19:28.287Z,15.80
2022-12-13T10:22:01.321Z,11.07
2022-12-13T10:24:36.970Z,16.07
2022-12-13T10:27:13.835Z,12.63
2022-12-13T10:30:03.025Z,15.67
2022-12-13T10:32:37.753Z,13.60
2022-12-13T10:35:20.653Z,14.87
2022-12-13T10:37:48.246Z,14.47
2022-12-13T10:40:31.912Z,14.87
2022-12-13T10:43:13.997Z,13.77
2022-12-13T10:45:44.222Z,15.83
2022-12-13T10:48:21.714Z,17.23
2022-12-13T10:51:01.829Z,12.60
2022-12-13T10:53:32.827Z,13.87
2022-12-13T10:56:02.154Z,15.47
2022-12-13T10:58:38.912Z,17.83
2022-12-13T11:01:13.052Z,13.97
2022-12-13T11:03:40.682Z,12.70
2022-12-13T11:06:13.994Z,14.90
2022-12-13T11:08:41.578Z,14.63
2022-12-13T11:11:10.938Z,19.97
2022-12-13T11:13:41.948Z,19.97
2022-12-13T11:16:22.476Z,18.17
2022-12-13T11:18:54.285Z,24.73
2022-12-13T11:21:26.410Z,17.90
2022-12-13T11:23:55.672Z,20.03
2022-12-13T11:26:26.647Z,22.83
2022-12-13T11:29:18.667Z,12.90
2022-12-13T11:32:01.409Z,14.07
2022-12-13T11:34:40.601Z,9.50
2022-12-13T11:37:17.990Z,11.23
2022-12-13T11:39:51.649Z,12.70
2022-12-13T11:42:26.736Z,22.40
2022-12-13T11:45:02.406Z,21.03
2022-12-13T11:47:38.184Z,22.30
2022-12-13T11:50:20.504Z,21.07
2022-12-13T11:53:06.770Z,15.63
2022-12-13T11:55:39.933Z,13.03
2022-12-13T11:58:16.474Z,17.93
2022-12-13T12:00:50.064Z,21.87
2022-12-13T12:03:21.793Z,18.53
2022-12-13T12:05:56.168Z,25.67
2022-12-13T12:08:34.178Z,18.20
2022-12-13T12:11:08.411Z,20.50
2022-12-13T12:13:51.481Z,19.60
2022-12-13T12:16:30.055Z,15.40
2022-12-13T12:19:01.625Z,9.07
2022-12-13T12:22:12.181Z,6.87
2022-12-13T12:24:36.744Z,8.07
2022-12-13T12:27:22.467Z,8.10
2022-12-13T12:30:23.114Z,12.07
2022-12-13T12:32:54.997Z,13.50
2022-12-13T12:35:38.143Z,9.87
2022-12-13T12:38:31.998Z,12.90
2022-12-13T12:41:23.737Z,8.70
2022-12-13T12:44:01.746Z,7.87
2022-12-13T12:47:01.436Z,7.10
2022-12-13T12:49:52.696Z,7.93
2022-12-13T12:52:29.562Z,8.67
2022-12-13T12:55:03.990Z,7.80
2022-12-13T12:57:40.597Z,10.90
2022-12-13T13:00:12.897Z,10.73
2022-12-13T13:02:44.649Z,7.33
2022-12-13T13:05:19.625Z,6.20
2022-12-13T13:07:52.861Z,5.93
2022-12-13T13:10:26.643Z,6.40
2022-12-13T13:13:11.504Z,7.13
2022-12-13T13:15:56.773Z,7.30
2022-12-13T13:18:44.839Z,7.20
2022-12-13T13:21:50.036Z,5.27
2022-12-13T13:24:24.657Z,7.53
2022-12-13T13:26:55.096Z,6.77
2022-12-13T13:29:35.422Z,7.37
2022-12-13T13:32:06.773Z,6.50
2022-12-13T13:34:36.281Z,6.67
2022-12-13T13:37:04.711Z,6.43
2022-12-13T13:39:56.664Z,6.73
2022-12-13T13:42:25.559Z,7.03
2022-12-13T13:45:12.462Z,7.50
2022-12-13T13:47:44.480Z,7.10
2022-12-13T13:51:10.008Z,7.53
2022-12-13T13:54:07.601Z,8.63
2022-12-13T13:57:33.164Z,9.90
2022-12-13T14:00:20.416Z,13.97
2022-12-13T14:03:34.027Z,17.50
2022-12-13T14:06:42.421Z,17.47
2022-12-13T14:09:58.076Z,18.97
2022-12-13T14:13:00.952Z,13.47
2022-12-13T14:16:00.397Z,12.93
2022-12-13T14:19:01.199Z,8.53
2022-12-13T14:21:39.584Z,10.17
2022-12-13T14:24:29.182Z,14.10
2022-12-13T14:27:13.368Z,10.03
2022-12-13T14:29:48.169Z,17.57
2022-12-13T14:32:26.755Z,20.63
2022-12-13T14:34:56.166Z,19.07
2022-12-13T14:37:31.334Z,23.77
2022-12-13T14:40:00.195Z,30.83
2022-12-13T14:42:30.204Z,26.10
2022-12-13T14:45:14.203Z,14.90
2022-12-13T14:47:44.028Z,23.03
2022-12-13T14:50:17.861Z,20.60
2022-12-13T14:52:46.410Z,16.57
2022-12-13T14:55:24.943Z,17.97
2022-12-13T14:57:54.300Z,17.87
2022-12-13T15:00:25.635Z,14.67
2022-12-13T15:02:56.637Z,15.70
2022-12-13T15:05:28.403Z,15.53
2022-12-13T15:07:57.380Z,23.43
2022-12-13T15:10:40.614Z,23.33
2022-12-13T15:13:08.548Z,21.27
2022-12-13T15:15:38.175Z,15.73
2022-12-13T15:18:16.582Z,13.30
2022-12-13T15:20:44.174Z,14.13
2022-12-13T15:23:19.745Z,14.57
2022-12-13T15:25:50.634Z,26.73
2022-12-13T15:28:21.872Z,28.83
2022-12-13T15:30:50.319Z,31.27
2022-12-13T15:33:26.388Z,28.77
2022-12-13T15:36:08.804Z,34.23
2022-12-13T15:38:38.530Z,23.13
2022-12-13T15:41:06.334Z,21.63
2022-12-13T15:43:38.097Z,22.90
2022-12-13T15:46:07.897Z,17.13
2022-12-13T15:48:39.832Z,13.50
2022-12-13T15:51:12.863Z,19.27
2022-12-13T15:53:41.949Z,26.57
2022-12-13T15:56:32.313Z,21.10
2022-12-13T15:59:01.196Z,21.13
2022-12-13T16:01:31.325Z,17.93
2022-12-13T16:04:03.527Z,20.47
2022-12-13T16:06:33.690Z,24.43
2022-12-13T16:09:03.860Z,23.87
2022-12-13T16:11:34.494Z,20.03
2022-12-13T16:14:27.205Z,23.37
2022-12-13T16:16:55.147Z,17.53
2022-12-13T16:19:24.092Z,30.73
2022-12-13T16:21:51.612Z,24.07
2022-12-13T16:24:19.200Z,21.07
2022-12-13T16:26:48.102Z,33.63
2022-12-13T16:29:19.303Z,28.33
2022-12-13T16:31:47.334Z,9.93
2022-12-13T16:34:17.404Z,13.17
2022-12-13T16:36:47.654Z,10.13
2022-12-13T16:39:15.622Z,12.47
2022-12-13T16:41:45.744Z,12.53
2022-12-13T16:44:22.671Z,11.90
2022-12-13T16:47:11.732Z,12.67
2022-12-13T16:49:38.502Z,21.70
2022-12-13T16:52:07.684Z,18.60
2022-12-13T16:54:35.536Z,14.20
2022-12-13T16:57:03.072Z,11.77
2022-12-13T16:59:30.616Z,12.33
2022-12-13T17:01:58.635Z,11.90
2022-12-13T17:04:27.377Z,9.90
2022-12-13T17:06:55.555Z,14.97
2022-12-13T17:09:25.561Z,12.63
2022-12-13T17:11:53.351Z,17.67
2022-12-13T17:14:20.868Z,21.00
2022-12-13T17:16:48.431Z,17.50
2022-12-13T17:19:17.366Z,16.60
2022-12-13T17:21:44.934Z,13.73
2022-12-13T17:24:12.516Z,15.50
2022-12-13T17:26:54.874Z,19.37
2022-12-13T17:29:23.156Z,15.87
2022-12-13T17:31:50.680Z,18.27
2022-12-13T17:34:18.196Z,20.13
2022-12-13T17:36:45.936Z,19.80
2022-12-13T17:39:13.512Z,17.50
2022-12-13T17:41:42.432Z,15.27
2022-12-13T17:44:22.129Z,16.80
2022-12-13T17:46:54.924Z,14.57
2022-12-13T17:49:23.288Z,17.17
2022-12-13T17:51:52.699Z,14.27
2022-12-13T17:54:20.563Z,19.93
2022-12-13T17:56:49.438Z,13.23
2022-12-13T17:59:17.557Z,14.13
2022-12-13T18:01:45.482Z,14.00
2022-12-13T18:04:13.508Z,14.33
2022-12-13T18:06:41.687Z,14.33
2022-12-13T18:09:09.890Z,16.67
2022-12-13T18:11:37.460Z,12.97
2022-12-13T18:14:08.246Z,12.57
2022-12-13T18:16:38.332Z,14.50
2022-12-13T18:19:07.836Z,12.93
2022-12-13T18:21:36.749Z,14.60
2022-12-13T18:24:05.589Z,24.27
2022-12-13T18:26:33.503Z,33.30
2022-12-13T18:29:01.003Z,29.17
2022-12-13T18:31:29.978Z,28.07
2022-12-13T18:33:57.662Z,23.80
2022-12-13T18:36:26.543Z,19.13
2022-12-13T18:38:54.209Z,17.47
2022-12-13T18:41:23.537Z,18.50
2022-12-13T18:43:55.857Z,17.73
2022-12-13T18:46:26.983Z,22.57
2022-12-13T18:48:56.615Z,16.13
2022-12-13T18:51:24.785Z,22.73
2022-12-13T18:53:53.097Z,17.80
2022-12-13T18:56:20.766Z,16.77
2022-12-13T18:58:49.067Z,17.60
2022-12-13T19:01:17.404Z,20.83
2022-12-13T19:03:46.803Z,23.10
2022-12-13T19:06:18.113Z,20.97
2022-12-13T19:08:48.316Z,19.27
2022-12-13T19:11:15.871Z,16.43
2022-12-13T19:13:43.419Z,18.53
2022-12-13T19:16:14.317Z,19.47
2022-12-13T19:18:42.305Z,24.50
2022-12-13T19:21:12.940Z,24.27
2022-12-13T19:23:42.715Z,19.97
2022-12-13T19:26:12.071Z,18.50
2022-12-13T19:28:41.309Z,19.37
2022-12-13T19:31:10.025Z,20.77
2022-12-13T19:33:37.821Z,19.77
2022-12-13T19:36:06.299Z,18.37
2022-12-13T19:38:33.882Z,18.13
2022-12-13T19:41:07.561Z,19.53
2022-12-13T19:43:35.215Z,15.63
2022-12-13T19:46:02.934Z,15.93
2022-12-13T19:48:30.526Z,19.37
2022-12-13T19:50:59.996Z,18.03
2022-12-13T19:53:28.147Z,21.07
2022-12-13T19:55:56.158Z,25.03
2022-12-13T19:58:25.734Z,29.30
2022-12-13T20:00:53.719Z,30.77
2022-12-13T20:03:21.309Z,26.43
2022-12-13T20:05:58.160Z,33.33
2022-12-13T20:08:26.174Z,25.40
2022-12-13T20:10:58.405Z,22.97
2022-12-13T20:13:28.205Z,35.00
2022-12-13T20:15:56.170Z,35.93
2022-12-13T20:18:24.143Z,31.90
2022-12-13T20:21:11.213Z,36.47
2022-12-13T20:23:39.381Z,28.30
2022-12-13T20:26:09.533Z,44.90
2022-12-13T20:28:38.467Z,46.90
2022-12-13T20:31:07.240Z,44.67
2022-12-13T20:33:35.092Z,29.13
2022-12-13T20:36:23.756Z,18.87
2022-12-13T20:38:51.504Z,15.33
2022-12-13T20:41:19.194Z,19.43
2022-12-13T20:43:51.544Z,20.43
2022-12-13T20:46:19.175Z,26.20
2022-12-13T20:48:48.556Z,18.03
2022-12-13T20:51:17.581Z,19.80
2022-12-13T20:53:46.783Z,19.70
2022-12-13T20:56:16.884Z,37.93
2022-12-13T20:58:45.415Z,34.53
2022-12-13T21:01:18.108Z,51.13
2022-12-13T21:03:46.515Z,41.50
2022-12-13T21:06:14.648Z,42.17
2022-12-13T21:08:55.170Z,41.97
2022-12-13T21:11:28.671Z,46.23
2022-12-13T21:14:02.453Z,38.73
2022-12-13T21:16:38.666Z,34.97
2022-12-13T21:19:06.806Z,18.17
2022-12-13T21:21:34.625Z,19.87
2022-12-13T21:24:03.141Z,19.97
2022-12-13T21:26:35.366Z,18.73
2022-12-13T21:29:05.229Z,15.83
2022-12-13T21:31:33.067Z,16.73
2022-12-13T21:34:03.146Z,34.07
2022-12-13T21:36:31.954Z,29.67
2022-12-13T21:39:01.579Z,27.73
2022-12-13T21:41:29.998Z,33.10
2022-12-13T21:43:57.688Z,29.53
2022-12-13T21:46:41.377Z,33.43
2022-12-13T21:49:17.149Z,34.40
2022-12-13T21:51:47.854Z,43.27
2022-12-13T21:54:16.026Z,42.53
2022-12-13T21:57:01.186Z,47.63
2022-12-13T21:59:29.578Z,39.30
2022-12-13T22:02:15.613Z,41.70
2022-12-13T22:04:46.418Z,53.07
2022-12-13T22:07:16.417Z,48.50
2022-12-13T22:09:44.176Z,30.77
2022-12-13T22:12:19.624Z,41.57
2022-12-13T22:14:47.263Z,43.07
2022-12-13T22:17:14.891Z,45.33
2022-12-13T22:19:42.459Z,45.80
2022-12-13T22:22:11.661Z,42.43
2022-12-13T22:24:39.183Z,37.57
2022-12-13T22:27:07.051Z,28.43
2022-12-13T22:29:34.586Z,29.00
2022-12-13T22:32:02.171Z,27.27
2022-12-13T22:34:29.771Z,34.80
2022-12-13T22:36:57.415Z,24.97
2022-12-13T22:39:26.300Z,30.47
2022-12-13T22:41:53.846Z,30.23
2022-12-13T22:44:21.745Z,20.27
2022-12-13T22:46:49.382Z,22.43
2022-12-13T22:49:16.964Z,23.77
2022-12-13T22:51:44.814Z,23.80
2022-12-13T22:54:12.396Z,32.87
2022-12-13T22:56:41.289Z,36.50
2022-12-13T22:59:08.893Z,30.13
2022-12-13T23:01:38.764Z,28.83
2022-12-13T23:04:07.335Z,24.87
2022-12-13T23:06:37.437Z,31.63
2022-12-13T23:09:07.796Z,25.53
2022-12-13T23:11:53.080Z,30.47
2022-12-13T23:14:31.155Z,28.40
2022-12-13T23:16:59.252Z,28.17
2022-12-13T23:19:49.723Z,21.03
2022-12-13T23:22:15.367Z,31.00
2022-12-13T23:24:42.875Z,37.07
2022-12-13T23:27:10.404Z,38.13
2022-12-13T23:29:39.487Z,27.57
2022-12-13T23:32:07.025Z,37.90
2022-12-13T23:34:34.670Z,47.40
2022-12-13T23:37:02.181Z,29.93
2022-12-13T23:39:29.739Z,28.50
2022-12-13T23:41:57.284Z,31.13
2022-12-13T23:44:25.015Z,37.57
2022-12-13T23:46:53.917Z,32.47
2022-12-13T23:49:21.453Z,24.50
2022-12-13T23:51:48.965Z,20.47
2022-12-13T23:54:19.307Z,30.67
2022-12-13T23:56:46.895Z,27.27
2022-12-13T23:59:14.479Z,24.10
